Time;durP1;ratioP1;P1;durP2;ratioP2;P2;SDS_P1;SDS_P2;PMS_P1;PMS_P2;Temp;Humidity;BMP_temperature;BMP_pressure;BME280_temperature;BME280_humidity;BME280_pressure;Samples;Min_cycle;Max_cycle;Signal;HPM_P1;HPM_P2
2023/01/27 00:02:43;;;;;;;137.60;45.43;;;-0.80;99.90;;;;;;4445545;28;660629;-64
2023/01/27 00:05:30;;;;;;;89.80;32.53;;;-0.80;99.90;;;;;;4418564;28;659265;-64
2023/01/27 00:08:19;;;;;;;94.80;34.80;;;-0.80;99.90;;;;;;4447772;28;659518;-64
2023/01/27 00:14:11;;;;;;;90.23;32.73;;;-0.80;99.90;;;;;;4420272;28;659361;-64
2023/01/27 00:16:58;;;;;;;80.03;31.13;;;-0.80;99.90;;;;;;4450573;28;659098;-64
2023/01/27 00:19:45;;;;;;;83.73;32.10;;;-0.80;99.90;;;;;;4428738;28;658396;-64
2023/01/27 00:25:39;;;;;;;89.97;34.60;;;-0.70;99.90;;;;;;4428277;28;660475;-64
2023/01/27 00:28:30;;;;;;;102.10;38.37;;;-0.70;99.90;;;;;;4416703;28;658975;-64
2023/01/27 00:34:21;;;;;;;106.37;40.20;;;-0.70;99.90;;;;;;4393214;28;659102;-63
2023/01/27 00:37:09;;;;;;;120.63;44.17;;;-0.80;99.90;;;;;;4448004;28;660042;-64
2023/01/27 00:39:56;;;;;;;129.83;45.10;;;-0.80;99.90;;;;;;4419144;28;659478;-64
2023/01/27 00:42:44;;;;;;;133.83;46.07;;;-0.80;99.90;;;;;;4442724;28;660452;-64
2023/01/27 00:45:51;;;;;;;130.90;43.97;;;-0.90;99.90;;;;;;4423973;28;659974;-64
2023/01/27 00:48:38;;;;;;;87.78;34.00;;;-0.90;99.90;;;;;;4421523;28;660098;-65
2023/01/27 00:51:25;;;;;;;162.00;50.07;;;-0.90;99.90;;;;;;4431643;28;658715;-64
2023/01/27 00:54:13;;;;;;;145.23;47.53;;;-0.90;99.90;;;;;;4446643;28;660989;-65
2023/01/27 00:57:00;;;;;;;140.82;47.17;;;-0.90;99.90;;;;;;4426409;28;659548;-64
2023/01/27 00:59:49;;;;;;;135.13;43.77;;;-0.90;99.90;;;;;;4450564;28;661130;-64
2023/01/27 01:02:36;;;;;;;201.03;61.13;;;-0.90;99.90;;;;;;4417070;28;659198;-64
2023/01/27 01:05:23;;;;;;;116.90;44.00;;;-0.90;99.90;;;;;;4445933;28;661161;-64
2023/01/27 01:08:11;;;;;;;96.30;37.93;;;-0.90;99.90;;;;;;4417310;28;659655;-64
2023/01/27 01:10:58;;;;;;;75.77;30.00;;;-0.90;99.90;;;;;;4449145;28;658861;-63
2023/01/27 01:13:45;;;;;;;66.65;26.92;;;-0.90;99.90;;;;;;4430068;28;658588;-64
2023/01/27 01:16:34;;;;;;;102.67;39.20;;;-0.90;99.90;;;;;;4445849;28;659986;-64
2023/01/27 01:19:21;;;;;;;82.70;33.38;;;-0.80;99.90;;;;;;4427454;28;659655;-64
2023/01/27 01:22:08;;;;;;;107.80;41.17;;;-0.80;99.90;;;;;;4436161;28;659392;-64
2023/01/27 01:24:56;;;;;;;124.70;42.43;;;-0.90;99.90;;;;;;4419836;28;659710;-64
2023/01/27 01:27:44;;;;;;;78.43;30.53;;;-0.90;99.90;;;;;;4444787;28;660072;-64
2023/01/27 01:30:33;;;;;;;81.27;33.60;;;-0.90;99.90;;;;;;4421699;28;658654;-65
2023/01/27 01:33:22;;;;;;;77.88;31.67;;;-0.90;99.90;;;;;;4420672;28;659017;-64
2023/01/27 01:36:10;;;;;;;86.97;31.77;;;-0.90;99.90;;;;;;4436935;28;659196;-64
2023/01/27 01:38:57;;;;;;;79.87;31.17;;;-0.90;99.90;;;;;;4421602;28;659422;-64
2023/01/27 01:41:45;;;;;;;160.63;55.87;;;-1.00;99.90;;;;;;4444644;28;658853;-64
2023/01/27 01:44:32;;;;;;;112.10;42.03;;;-0.90;99.90;;;;;;4417293;28;661425;-64
2023/01/27 01:47:19;;;;;;;130.50;46.07;;;-1.00;99.90;;;;;;4445775;28;659342;-64
2023/01/27 01:50:09;;;;;;;88.17;35.17;;;-1.00;99.90;;;;;;4414601;28;659648;-64
2023/01/27 01:52:56;;;;;;;82.90;34.03;;;-0.90;99.90;;;;;;4419725;28;659269;-64
2023/01/27 01:55:43;;;;;;;82.30;34.20;;;-0.90;99.90;;;;;;4440958;28;660591;-64
2023/01/27 01:58:30;;;;;;;56.97;25.27;;;-0.90;99.90;;;;;;4418208;28;659386;-64
2023/01/27 02:01:18;;;;;;;66.47;27.63;;;-0.90;99.90;;;;;;4450995;28;660199;-64
2023/01/27 02:04:07;;;;;;;69.80;29.77;;;-0.90;99.90;;;;;;4432918;28;658427;-64
2023/01/27 02:06:59;;;;;;;89.77;33.60;;;-0.80;99.90;;;;;;4439118;28;660283;-64
2023/01/27 02:09:46;;;;;;;66.10;26.83;;;-0.80;99.90;;;;;;4417669;28;659096;-64
2023/01/27 02:12:33;;;;;;;68.80;27.83;;;-0.80;99.90;;;;;;4446085;28;660034;-64
2023/01/27 02:15:21;;;;;;;94.00;34.10;;;-0.80;99.90;;;;;;4421212;28;658467;-64
2023/01/27 02:18:08;;;;;;;69.60;26.97;;;-0.80;99.90;;;;;;4440436;28;659884;-64
2023/01/27 02:20:55;;;;;;;56.37;24.20;;;-0.90;99.90;;;;;;4426244;28;658812;-64
2023/01/27 02:23:55;;;;;;;64.07;25.90;;;-0.90;99.90;;;;;;4442465;28;659523;-64
2023/01/27 02:26:44;;;;;;;62.33;25.35;;;-0.90;99.90;;;;;;4421599;28;658636;-64
2023/01/27 02:29:31;;;;;;;58.22;23.77;;;-0.90;99.90;;;;;;4421328;28;658558;-64
2023/01/27 02:32:25;;;;;;;60.87;22.37;;;-0.90;99.90;;;;;;4441769;28;659934;-64
2023/01/27 02:35:13;;;;;;;60.83;24.80;;;-0.90;99.90;;;;;;4392717;28;658894;-64
2023/01/27 02:38:01;;;;;;;56.27;24.27;;;-0.90;99.90;;;;;;4422062;28;658720;-64
2023/01/27 02:40:48;;;;;;;75.63;28.50;;;-0.90;99.90;;;;;;4445229;28;659040;-64
2023/01/27 02:43:37;;;;;;;75.60;31.43;;;-1.00;99.90;;;;;;4411527;28;659628;-64
2023/01/27 02:46:24;;;;;;;127.50;51.20;;;-1.00;99.90;;;;;;4448883;28;658646;-64
2023/01/27 02:49:11;;;;;;;83.00;34.37;;;-1.00;99.90;;;;;;4413800;28;659530;-64
2023/01/27 02:51:59;;;;;;;64.17;26.77;;;-1.00;99.90;;;;;;4438533;28;658349;-64
2023/01/27 02:54:46;;;;;;;64.30;29.67;;;-0.90;99.90;;;;;;4416388;28;659204;-64
2023/01/27 02:57:33;;;;;;;63.70;27.03;;;-1.00;99.90;;;;;;4440279;28;659447;-64
2023/01/27 03:00:22;;;;;;;60.70;26.53;;;-1.00;99.90;;;;;;4415010;28;658725;-64
2023/01/27 03:03:09;;;;;;;79.07;28.63;;;-1.00;99.90;;;;;;4439547;28;658849;-64
2023/01/27 03:05:56;;;;;;;133.43;45.67;;;-1.00;99.90;;;;;;4414327;28;658482;-64
2023/01/27 03:08:44;;;;;;;97.57;37.53;;;-1.00;99.90;;;;;;4436509;28;659803;-64
2023/01/27 03:20:47;;;;;;;55.33;24.07;;;-1.00;99.90;;;;;;4424222;28;658631;-64
2023/01/27 03:23:34;;;;;;;69.87;30.80;;;-1.00;99.90;;;;;;4441087;28;658951;-64
2023/01/27 03:26:22;;;;;;;65.13;28.63;;;-1.00;99.90;;;;;;4419043;28;658982;-64
2023/01/27 03:32:14;;;;;;;55.40;23.73;;;-1.10;99.90;;;;;;4414874;28;659418;-64
2023/01/27 03:35:02;;;;;;;55.20;24.10;;;-1.20;99.90;;;;;;4423910;28;658282;-63
2023/01/27 03:47:03;;;;;;;57.27;22.23;;;-1.20;99.90;;;;;;4418772;28;659418;-64
2023/01/27 03:49:51;;;;;;;54.27;23.43;;;-1.20;99.90;;;;;;4422309;28;658953;-64
2023/01/27 03:52:40;;;;;;;53.67;21.30;;;-1.20;99.90;;;;;;4446868;28;659187;-65
2023/01/27 03:55:27;;;;;;;51.83;21.50;;;-1.30;99.90;;;;;;4414888;28;659886;-64
2023/01/27 03:58:18;;;;;;;82.75;21.83;;;-1.20;99.90;;;;;;4435028;28;659039;-64
2023/01/27 04:01:06;;;;;;;50.70;20.33;;;-1.20;99.90;;;;;;4389977;28;658544;-64
2023/01/27 04:07:01;;;;;;;44.77;19.80;;;-1.20;99.90;;;;;;4414184;28;659737;-64
2023/01/27 04:09:51;;;;;;;49.60;20.13;;;-1.20;99.90;;;;;;4412501;28;660060;-64
2023/01/27 04:12:38;;;;;;;50.40;21.27;;;-1.20;99.90;;;;;;4417159;28;658693;-64
2023/01/27 04:15:26;;;;;;;52.43;19.83;;;-1.20;99.90;;;;;;4422759;28;658567;-64
2023/01/27 04:18:13;;;;;;;46.50;19.57;;;-1.20;99.90;;;;;;4436170;28;659062;-64
2023/01/27 04:21:00;;;;;;;47.03;20.37;;;-1.20;99.90;;;;;;4421233;28;659364;-64
2023/01/27 04:23:47;;;;;;;41.30;17.77;;;-1.30;99.90;;;;;;4438177;28;659776;-64
2023/01/27 04:26:40;;;;;;;47.53;21.07;;;-1.30;99.90;;;;;;4446792;28;658675;-64
2023/01/27 04:29:28;;;;;;;48.60;20.73;;;-1.30;99.90;;;;;;4407642;28;659061;-64
2023/01/27 04:32:16;;;;;;;45.60;18.43;;;-1.30;99.90;;;;;;4414861;28;658638;-64
2023/01/27 04:35:03;;;;;;;48.03;19.80;;;-1.30;99.90;;;;;;4432942;28;658184;-64
2023/01/27 04:37:50;;;;;;;47.08;19.15;;;-1.40;99.90;;;;;;4418500;28;658714;-64
2023/01/27 04:40:37;;;;;;;50.90;20.47;;;-1.40;99.90;;;;;;4431658;28;660000;-64
2023/01/27 04:43:27;;;;;;;44.60;18.40;;;-1.50;99.90;;;;;;4442539;28;658726;-64
2023/01/27 04:46:14;;;;;;;39.57;18.47;;;-1.40;99.90;;;;;;4445041;28;658630;-64
2023/01/27 04:49:01;;;;;;;44.30;19.87;;;-1.50;99.90;;;;;;4419101;28;658689;-64
2023/01/27 04:51:48;;;;;;;42.80;18.77;;;-1.50;99.90;;;;;;4436805;28;659997;-63
2023/01/27 04:54:35;;;;;;;48.07;20.00;;;-1.50;99.90;;;;;;4419594;28;659151;-64
2023/01/27 04:57:23;;;;;;;41.57;17.43;;;-1.50;99.90;;;;;;4439027;28;661325;-64
2023/01/27 05:00:13;;;;;;;46.90;19.73;;;-1.50;99.90;;;;;;4426101;28;658818;-64
2023/01/27 05:03:03;;;;;;;51.67;21.67;;;-1.60;99.90;;;;;;4420133;28;658759;-64
2023/01/27 05:05:51;;;;;;;45.50;19.93;;;-1.50;99.90;;;;;;4415432;28;658531;-64
2023/01/27 05:08:38;;;;;;;48.93;20.30;;;-1.60;99.90;;;;;;4441187;28;659439;-64
2023/01/27 05:11:25;;;;;;;51.63;23.77;;;-1.50;99.90;;;;;;4411561;28;659093;-64
2023/01/27 05:14:13;;;;;;;58.13;23.57;;;-1.60;99.90;;;;;;4439290;28;659710;-64
2023/01/27 05:17:02;;;;;;;55.75;22.58;;;-1.60;99.90;;;;;;4419649;28;659599;-64
2023/01/27 05:19:49;;;;;;;50.33;20.53;;;-1.60;99.90;;;;;;4441940;28;658479;-64
2023/01/27 05:22:36;;;;;;;46.50;19.93;;;-1.60;99.90;;;;;;4419271;28;658405;-64
2023/01/27 05:25:23;;;;;;;45.00;19.17;;;-1.60;99.90;;;;;;4429875;28;659854;-64
2023/01/27 05:28:10;;;;;;;47.50;19.80;;;-1.60;99.90;;;;;;4425018;28;658760;-64
2023/01/27 05:31:01;;;;;;;44.50;20.17;;;-1.60;99.90;;;;;;4436846;28;658623;-64
2023/01/27 05:33:51;;;;;;;42.97;19.53;;;-1.60;99.90;;;;;;4423162;28;659174;-64
2023/01/27 05:36:38;;;;;;;40.20;18.43;;;-1.50;99.90;;;;;;4419970;28;660058;-64
2023/01/27 05:39:25;;;;;;;37.78;16.45;;;-1.60;99.90;;;;;;4417101;28;659344;-64
2023/01/27 05:42:13;;;;;;;41.23;18.00;;;-1.60;99.90;;;;;;4439635;28;660252;-64
2023/01/27 05:45:00;;;;;;;44.43;19.87;;;-1.60;99.90;;;;;;4429768;28;659450;-64
2023/01/27 05:47:49;;;;;;;59.80;21.73;;;-1.70;99.90;;;;;;4442748;28;658537;-64
2023/01/27 05:50:38;;;;;;;115.23;37.47;;;-1.70;99.90;;;;;;4415654;28;659786;-64
2023/01/27 05:53:25;;;;;;;47.87;20.43;;;-1.70;99.90;;;;;;4410881;28;660080;-64
2023/01/27 05:56:14;;;;;;;41.30;19.30;;;-1.70;99.90;;;;;;4437010;28;659906;-64
2023/01/27 05:59:01;;;;;;;41.87;17.93;;;-1.70;99.90;;;;;;4417882;28;659656;-64
2023/01/27 06:01:48;;;;;;;41.57;17.90;;;-1.60;99.90;;;;;;4438510;28;659226;-64
2023/01/27 06:04:36;;;;;;;47.57;20.47;;;-1.70;99.90;;;;;;4414766;28;658776;-65
2023/01/27 06:07:24;;;;;;;33.70;15.60;;;-1.60;99.90;;;;;;4438802;28;659905;-64
2023/01/27 06:10:12;;;;;;;36.27;17.00;;;-1.60;99.90;;;;;;4413396;28;660095;-64
2023/01/27 06:12:59;;;;;;;43.40;15.90;;;-1.60;99.90;;;;;;4443010;28;658468;-64
2023/01/27 06:15:47;;;;;;;101.90;26.63;;;-1.70;99.90;;;;;;4415174;28;658500;-64
2023/01/27 06:18:34;;;;;;;86.07;28.77;;;-1.70;99.90;;;;;;4436839;28;659489;-64
2023/01/27 06:21:21;;;;;;;95.33;35.10;;;-1.70;99.90;;;;;;4420125;28;658612;-64
2023/01/27 06:24:10;;;;;;;86.33;34.40;;;-1.70;99.90;;;;;;4439951;28;659376;-64
2023/01/27 06:26:57;;;;;;;52.80;23.60;;;-1.70;99.90;;;;;;4420811;28;659377;-64
2023/01/27 06:29:44;;;;;;;42.93;20.13;;;-1.70;99.90;;;;;;4441976;28;658808;-64
2023/01/27 06:32:31;;;;;;;36.67;16.77;;;-1.70;99.90;;;;;;4424930;28;658503;-64
2023/01/27 06:35:19;;;;;;;39.47;16.77;;;-1.70;99.90;;;;;;4445319;28;659807;-63
2023/01/27 06:38:07;;;;;;;47.60;20.03;;;-1.70;99.90;;;;;;4417005;28;658525;-63
2023/01/27 06:40:56;;;;;;;42.50;17.77;;;-1.80;99.90;;;;;;4439626;28;659079;-63
2023/01/27 06:43:43;;;;;;;49.57;20.30;;;-1.80;99.90;;;;;;4420429;28;659318;-63
2023/01/27 06:46:30;;;;;;;54.53;21.20;;;-1.70;99.90;;;;;;4419409;28;659187;-63
2023/01/27 06:49:18;;;;;;;41.13;16.90;;;-1.70;99.90;;;;;;4433273;28;659098;-63
2023/01/27 06:52:05;;;;;;;40.73;16.47;;;-1.70;99.90;;;;;;4429190;28;658683;-63
2023/01/27 06:54:52;;;;;;;45.23;18.20;;;-1.70;99.90;;;;;;4435189;28;659888;-63
2023/01/27 06:57:43;;;;;;;42.27;18.53;;;-1.60;99.90;;;;;;4435763;28;658476;-64
2023/01/27 07:00:30;;;;;;;47.57;19.07;;;-1.60;99.90;;;;;;4423435;28;658662;-63
2023/01/27 07:03:17;;;;;;;100.00;33.63;;;-1.60;99.90;;;;;;4435813;28;659099;-64
2023/01/27 07:06:06;;;;;;;85.50;29.03;;;-1.60;99.90;;;;;;4432287;28;659517;-63
2023/01/27 07:08:53;;;;;;;55.90;21.83;;;-1.60;99.90;;;;;;4437745;28;658876;-63
2023/01/27 07:11:40;;;;;;;66.88;24.83;;;-1.60;99.90;;;;;;4417726;28;658696;-63
2023/01/27 07:14:29;;;;;;;66.17;25.30;;;-1.60;99.90;;;;;;4432151;28;659630;-63
2023/01/27 07:17:16;;;;;;;139.35;45.10;;;-1.60;99.90;;;;;;4417781;28;658609;-63
2023/01/27 07:20:04;;;;;;;60.93;19.53;;;-1.60;99.90;;;;;;4432756;28;660363;-63
2023/01/27 07:22:51;;;;;;;46.43;19.17;;;-1.60;99.90;;;;;;4410331;28;658983;-64
2023/01/27 07:25:39;;;;;;;62.20;24.40;;;-1.50;99.90;;;;;;4433866;28;658863;-63
2023/01/27 07:28:26;;;;;;;53.93;22.37;;;-1.50;99.90;;;;;;4418559;28;658834;-64
2023/01/27 07:31:15;;;;;;;42.10;18.98;;;-1.50;99.90;;;;;;4434683;28;659744;-63
2023/01/27 07:34:02;;;;;;;50.00;21.40;;;-1.40;99.90;;;;;;4410937;28;660247;-64
2023/01/27 07:36:49;;;;;;;45.70;19.30;;;-1.40;99.90;;;;;;4435190;28;659251;-72
2023/01/27 07:39:37;;;;;;;42.80;17.47;;;-1.40;99.90;;;;;;4423881;28;658723;-72
2023/01/27 07:42:25;;;;;;;45.10;19.50;;;-1.30;99.90;;;;;;4432270;28;658578;-72
2023/01/27 07:45:13;;;;;;;41.93;18.00;;;-1.30;99.90;;;;;;4437114;28;659759;-72
2023/01/27 07:48:02;;;;;;;42.47;19.13;;;-1.30;99.90;;;;;;4428180;28;658923;-73
2023/01/27 07:50:49;;;;;;;51.22;21.17;;;-1.30;99.90;;;;;;4432713;28;659242;-72
2023/01/27 07:53:37;;;;;;;47.53;20.63;;;-1.30;99.90;;;;;;4419489;28;658871;-72
2023/01/27 07:56:24;;;;;;;38.30;17.37;;;-1.20;99.90;;;;;;4441265;28;659004;-72
2023/01/27 07:59:11;;;;;;;41.90;17.17;;;-1.20;99.90;;;;;;4413428;28;658347;-72
2023/01/27 08:01:59;;;;;;;45.73;19.73;;;-1.20;99.90;;;;;;4428625;28;659326;-72
2023/01/27 08:04:49;;;;;;;51.30;20.00;;;-1.10;99.90;;;;;;4419176;28;659180;-72
2023/01/27 08:07:37;;;;;;;51.70;19.43;;;-1.10;99.90;;;;;;4413126;28;659873;-72
2023/01/27 08:10:24;;;;;;;41.20;16.37;;;-1.10;99.90;;;;;;4440899;28;658778;-72
2023/01/27 08:13:11;;;;;;;43.90;17.33;;;-1.10;99.90;;;;;;4418657;28;658233;-72
2023/01/27 08:15:59;;;;;;;40.30;17.37;;;-1.10;99.90;;;;;;4438311;28;659171;-72
2023/01/27 08:18:47;;;;;;;56.03;22.20;;;-1.10;99.90;;;;;;4413761;28;658644;-72
2023/01/27 08:21:35;;;;;;;155.27;35.67;;;-1.10;99.90;;;;;;4436980;28;659403;-72
2023/01/27 08:24:23;;;;;;;117.83;31.20;;;-1.20;99.90;;;;;;4415676;28;661346;-72
2023/01/27 08:27:10;;;;;;;63.20;22.92;;;-1.10;99.90;;;;;;4425549;28;659581;-72
2023/01/27 08:29:58;;;;;;;103.73;35.60;;;-1.10;99.90;;;;;;4436875;28;660176;-72
2023/01/27 08:32:45;;;;;;;87.00;33.13;;;-1.10;99.90;;;;;;4426243;28;660401;-72
2023/01/27 08:35:35;;;;;;;46.33;18.93;;;-1.10;99.90;;;;;;4440390;28;659642;-72
2023/01/27 08:38:24;;;;;;;41.87;17.10;;;-1.10;99.90;;;;;;4412840;28;659662;-72
2023/01/27 08:41:12;;;;;;;51.93;22.63;;;-1.10;99.90;;;;;;4416187;28;658460;-72
2023/01/27 08:44:00;;;;;;;47.17;19.57;;;-1.10;99.90;;;;;;4430429;28;659439;-73
2023/01/27 08:46:47;;;;;;;50.70;21.47;;;-1.10;99.90;;;;;;4443073;28;659166;-71
2023/01/27 08:49:35;;;;;;;45.30;18.50;;;-1.10;99.90;;;;;;4434614;28;658657;-74
2023/01/27 08:52:23;;;;;;;58.27;22.00;;;-1.10;99.90;;;;;;4438123;28;658929;-75
2023/01/27 08:55:12;;;;;;;49.70;20.13;;;-1.10;99.90;;;;;;4428592;28;658597;-72
2023/01/27 08:57:59;;;;;;;56.53;22.83;;;-1.10;99.90;;;;;;4436573;28;658939;-71
2023/01/27 09:00:46;;;;;;;50.30;20.70;;;-1.10;99.90;;;;;;4418222;28;658810;-72
2023/01/27 09:03:34;;;;;;;43.77;18.03;;;-1.00;99.90;;;;;;4438515;28;658936;-74
2023/01/27 09:06:21;;;;;;;47.10;20.07;;;-1.00;99.90;;;;;;4413750;28;658818;-72
2023/01/27 09:09:09;;;;;;;71.03;27.77;;;-1.00;99.90;;;;;;4443586;28;658997;-72
2023/01/27 09:11:57;;;;;;;37.00;15.83;;;-0.90;99.90;;;;;;4412550;28;658294;-71
2023/01/27 09:14:45;;;;;;;57.87;24.23;;;-0.90;99.90;;;;;;4438280;28;659258;-71
2023/01/27 09:17:33;;;;;;;52.93;21.73;;;-1.00;99.90;;;;;;4441791;28;659335;-70
2023/01/27 09:20:21;;;;;;;47.37;19.60;;;-1.00;99.90;;;;;;4425922;28;659126;-72
2023/01/27 09:23:08;;;;;;;41.13;17.80;;;-1.00;99.90;;;;;;4443375;28;659265;-72
2023/01/27 09:25:55;;;;;;;44.73;18.10;;;-0.90;99.90;;;;;;4415836;28;658623;-72
2023/01/27 09:28:44;;;;;;;37.30;17.10;;;-0.90;99.90;;;;;;4433648;28;660181;-71
2023/01/27 09:31:31;;;;;;;44.03;17.37;;;-0.90;99.90;;;;;;4412043;28;658700;-71
2023/01/27 09:34:20;;;;;;;45.67;19.13;;;-0.80;99.90;;;;;;4431501;28;658383;-72
2023/01/27 09:37:10;;;;;;;48.53;20.17;;;-0.80;99.90;;;;;;4436014;28;659424;-71
2023/01/27 09:40:00;;;;;;;48.00;17.87;;;-0.70;99.90;;;;;;4409869;28;660199;-73
2023/01/27 09:42:58;;;;;;;45.77;18.80;;;-0.70;99.90;;;;;;4409775;28;660320;-71
2023/01/27 09:45:54;;;;;;;50.78;20.23;;;-0.70;99.90;;;;;;4420583;28;659536;-72
2023/01/27 09:48:56;;;;;;;36.83;16.30;;;-0.70;99.90;;;;;;4408170;28;658839;-71
2023/01/27 09:51:48;;;;;;;37.37;16.33;;;-0.60;99.90;;;;;;4410339;28;659800;-73
2023/01/27 09:54:42;;;;;;;38.17;16.53;;;-0.50;99.90;;;;;;4390538;28;659075;-72
2023/01/27 09:57:35;;;;;;;38.53;17.53;;;-0.50;99.90;;;;;;4416777;28;658895;-73
2023/01/27 10:00:30;;;;;;;45.27;17.17;;;-0.50;99.90;;;;;;4393476;28;659378;-72
2023/01/27 10:03:42;;;;;;;34.87;15.77;;;-0.40;99.90;;;;;;4389749;28;659204;-72
2023/01/27 10:06:46;;;;;;;35.37;15.87;;;-0.40;99.90;;;;;;4412490;28;658857;-71
2023/01/27 10:09:57;;;;;;;54.37;21.93;;;-0.30;99.90;;;;;;4413721;28;659361;-72
2023/01/27 10:13:09;;;;;;;37.90;16.08;;;-0.20;99.90;;;;;;4409236;28;658943;-71
2023/01/27 10:16:03;;;;;;;42.17;17.10;;;-0.10;99.90;;;;;;4420101;28;658480;-71
2023/01/27 10:19:01;;;;;;;46.73;18.37;;;0.10;99.90;;;;;;4420126;28;659165;-71
2023/01/27 10:21:52;;;;;;;39.10;17.97;;;0.30;99.90;;;;;;4414539;28;658523;-71
2023/01/27 10:24:49;;;;;;;49.23;20.97;;;0.40;99.90;;;;;;4412532;28;658016;-71
2023/01/27 10:27:36;;;;;;;36.77;16.17;;;0.60;99.90;;;;;;4413132;28;657397;-75
2023/01/27 10:30:28;;;;;;;39.50;17.57;;;0.70;99.90;;;;;;4429235;28;657621;-73
2023/01/27 10:33:17;;;;;;;69.70;28.80;;;0.90;99.90;;;;;;4397868;28;658055;-73
2023/01/27 10:36:08;;;;;;;38.00;17.67;;;0.90;99.90;;;;;;4430852;28;657492;-73
2023/01/27 10:39:05;;;;;;;38.57;16.63;;;0.90;99.90;;;;;;4400506;28;657463;-73
2023/01/27 10:41:56;;;;;;;73.27;23.93;;;0.80;99.90;;;;;;4406271;28;657339;-71
2023/01/27 10:44:54;;;;;;;37.93;14.67;;;0.80;99.90;;;;;;4414138;28;658147;-72
2023/01/27 10:47:50;;;;;;;37.57;15.93;;;0.70;99.90;;;;;;4414514;28;657367;-72
2023/01/27 10:50:39;;;;;;;34.67;15.23;;;0.70;99.90;;;;;;4382605;28;658124;-72
2023/01/27 10:53:32;;;;;;;35.93;14.77;;;0.60;99.90;;;;;;4403622;28;657950;-72
2023/01/27 10:56:24;;;;;;;34.07;15.30;;;0.60;99.90;;;;;;4411510;28;659073;-72
2023/01/27 10:59:15;;;;;;;47.13;19.47;;;0.60;99.90;;;;;;4387251;28;658221;-72
2023/01/27 11:02:04;;;;;;;48.50;19.60;;;0.60;99.90;;;;;;4409196;28;658564;-72
2023/01/27 11:04:53;;;;;;;34.73;15.57;;;0.60;99.90;;;;;;4406677;28;657776;-72
2023/01/27 11:07:44;;;;;;;32.93;15.50;;;0.50;99.90;;;;;;4411132;28;657928;-72
2023/01/27 11:10:36;;;;;;;43.30;18.63;;;0.60;99.90;;;;;;4410643;28;657950;-71
2023/01/27 11:13:23;;;;;;;33.70;14.45;;;0.50;99.90;;;;;;4406974;28;659139;-73
2023/01/27 11:16:14;;;;;;;34.27;13.80;;;0.60;99.90;;;;;;4413738;28;657991;-72
2023/01/27 11:19:05;;;;;;;40.10;17.30;;;0.60;99.90;;;;;;4412137;28;657743;-73
2023/01/27 11:21:53;;;;;;;40.47;17.17;;;0.50;99.90;;;;;;4411632;28;658378;-73
2023/01/27 11:24:43;;;;;;;40.47;16.20;;;0.60;99.90;;;;;;4415655;28;657759;-73
2023/01/27 11:27:46;;;;;;;40.17;15.77;;;0.60;99.90;;;;;;4409063;28;657976;-72
2023/01/27 11:30:36;;;;;;;39.40;16.83;;;0.60;99.90;;;;;;4403909;28;657988;-72
2023/01/27 11:33:26;;;;;;;34.50;14.97;;;0.60;99.90;;;;;;4412378;28;657761;-73
2023/01/27 11:36:13;;;;;;;34.97;15.57;;;0.50;99.90;;;;;;4401919;28;658040;-72
2023/01/27 11:39:03;;;;;;;32.58;14.93;;;0.60;99.90;;;;;;4408643;28;657652;-72
2023/01/27 11:41:51;;;;;;;40.13;16.60;;;0.60;99.90;;;;;;4425151;28;657430;-72
2023/01/27 11:44:40;;;;;;;35.93;15.97;;;0.60;99.90;;;;;;4435201;28;658497;-73
2023/01/27 11:47:29;;;;;;;35.90;15.63;;;0.70;99.90;;;;;;4413069;28;658843;-73
2023/01/27 11:50:17;;;;;;;60.70;21.97;;;0.60;99.90;;;;;;4421228;28;657781;-72
2023/01/27 11:53:09;;;;;;;33.13;14.93;;;0.60;99.90;;;;;;4432049;28;657986;-73
2023/01/27 11:55:59;;;;;;;35.53;15.97;;;0.60;99.90;;;;;;4411945;28;657901;-72
2023/01/27 11:58:50;;;;;;;33.00;13.70;;;0.60;99.90;;;;;;4415643;28;657687;-72
2023/01/27 12:01:45;;;;;;;30.57;13.40;;;0.60;99.90;;;;;;4418123;28;658741;-72
2023/01/27 12:04:44;;;;;;;36.43;14.97;;;0.40;99.90;;;;;;4414845;28;658013;-72
2023/01/27 12:07:39;;;;;;;30.33;14.45;;;0.40;99.90;;;;;;4413658;28;657542;-72
2023/01/27 12:10:29;;;;;;;35.13;14.80;;;0.50;99.90;;;;;;4420338;28;657976;-73
2023/01/27 12:13:17;;;;;;;46.35;18.30;;;0.50;99.90;;;;;;4418196;28;657521;-73
2023/01/27 12:16:05;;;;;;;38.10;16.13;;;0.50;99.90;;;;;;4435463;28;659213;-72
2023/01/27 12:18:56;;;;;;;31.97;14.27;;;0.50;99.90;;;;;;4417404;28;658288;-72
2023/01/27 12:21:46;;;;;;;32.60;14.17;;;0.50;99.90;;;;;;4424020;28;657956;-72
2023/01/27 12:24:35;;;;;;;35.37;15.23;;;0.40;99.90;;;;;;4410935;28;657415;-73
2023/01/27 12:27:24;;;;;;;36.33;15.83;;;0.40;99.90;;;;;;4419793;28;658219;-73
2023/01/27 12:30:19;;;;;;;41.90;17.53;;;0.30;99.90;;;;;;4418268;28;657577;-72
2023/01/27 12:33:11;;;;;;;37.57;15.27;;;0.30;99.90;;;;;;4410744;28;658612;-72
2023/01/27 12:36:01;;;;;;;34.77;15.63;;;0.30;99.90;;;;;;4412583;28;657462;-71
2023/01/27 12:38:50;;;;;;;39.10;15.63;;;0.30;99.90;;;;;;4411877;28;658577;-73
2023/01/27 12:41:37;;;;;;;37.83;16.07;;;0.20;99.90;;;;;;4418419;28;657721;-71
2023/01/27 12:44:26;;;;;;;39.17;16.17;;;0.30;99.90;;;;;;4437185;28;656852;-72
2023/01/27 12:47:21;;;;;;;48.40;19.90;;;0.30;99.90;;;;;;4411317;28;658149;-72
2023/01/27 12:50:20;;;;;;;62.63;25.90;;;0.30;99.90;;;;;;4421798;28;657380;-70
2023/01/27 12:53:12;;;;;;;38.33;16.23;;;0.30;99.90;;;;;;4417758;28;658012;-71
2023/01/27 12:56:01;;;;;;;44.20;17.40;;;0.30;99.90;;;;;;4419529;28;657455;-73
2023/01/27 12:58:56;;;;;;;50.83;19.00;;;0.30;99.90;;;;;;4408112;28;659993;-73
2023/01/27 13:01:45;;;;;;;62.73;23.50;;;0.30;99.90;;;;;;4412634;28;657883;-73
2023/01/27 13:04:33;;;;;;;52.40;21.73;;;0.20;99.90;;;;;;4422131;28;659023;-72
2023/01/27 13:07:23;;;;;;;45.63;19.95;;;0.20;99.90;;;;;;4424004;28;657775;-70
2023/01/27 13:10:19;;;;;;;47.53;18.63;;;0.20;99.90;;;;;;4433140;28;657729;-72
2023/01/27 13:13:14;;;;;;;159.20;40.87;;;0.20;99.90;;;;;;4422418;28;657581;-72
2023/01/27 13:16:05;;;;;;;70.70;25.77;;;0.20;99.90;;;;;;4387993;28;659409;-71
2023/01/27 13:18:53;;;;;;;46.63;20.27;;;0.20;99.90;;;;;;4414034;28;657950;-71
2023/01/27 13:21:41;;;;;;;47.07;18.97;;;0.20;99.90;;;;;;4415066;28;657747;-71
2023/01/27 13:24:31;;;;;;;48.30;18.57;;;0.10;99.90;;;;;;4441669;28;658419;-71
2023/01/27 13:27:21;;;;;;;52.53;22.23;;;0.10;99.90;;;;;;4415069;28;657476;-70
2023/01/27 13:30:16;;;;;;;39.37;16.87;;;0.20;99.90;;;;;;4413269;28;658613;-73
2023/01/27 13:33:08;;;;;;;52.03;20.97;;;0.10;99.90;;;;;;4412716;28;657737;-73
2023/01/27 13:35:59;;;;;;;58.83;22.33;;;0.10;99.90;;;;;;4392273;28;657785;-71
2023/01/27 13:38:49;;;;;;;72.63;27.43;;;0.10;99.90;;;;;;4414017;28;657841;-71
2023/01/27 13:41:39;;;;;;;50.60;20.97;;;0.10;99.90;;;;;;4416668;28;657246;-71
2023/01/27 13:44:30;;;;;;;50.53;18.10;;;0.10;99.90;;;;;;4418184;28;657645;-71
2023/01/27 13:47:20;;;;;;;57.72;21.65;;;0.10;99.90;;;;;;4414889;28;658960;-73
2023/01/27 13:50:09;;;;;;;69.37;25.37;;;0.10;99.90;;;;;;4416256;28;659386;-71
2023/01/27 13:52:57;;;;;;;49.63;20.37;;;0.00;99.90;;;;;;4413875;28;657974;-73
2023/01/27 13:56:03;;;;;;;75.03;26.37;;;0.00;99.90;;;;;;4435870;28;657640;-72
2023/01/27 13:58:54;;;;;;;62.93;25.07;;;0.00;99.90;;;;;;4411469;28;657966;-72
2023/01/27 14:01:48;;;;;;;74.43;26.03;;;0.00;99.90;;;;;;4416055;28;657442;-72
2023/01/27 14:04:55;;;;;;;51.40;20.13;;;-0.10;99.90;;;;;;4389293;28;657270;-72
2023/01/27 14:07:43;;;;;;;54.90;21.73;;;-0.10;99.90;;;;;;4419528;28;659956;-72
2023/01/27 14:10:34;;;;;;;49.93;22.80;;;-0.10;99.90;;;;;;4412717;28;658607;-73
2023/01/27 14:13:34;;;;;;;44.92;18.67;;;-0.10;99.90;;;;;;4419409;28;660212;-73
2023/01/27 14:16:25;;;;;;;51.43;19.93;;;-0.20;99.90;;;;;;4389219;28;658490;-72
2023/01/27 14:19:24;;;;;;;53.73;21.20;;;-0.20;99.90;;;;;;4417053;28;659148;-73
2023/01/27 14:22:15;;;;;;;41.73;18.23;;;-0.30;99.90;;;;;;4414049;28;658947;-72
2023/01/27 14:25:04;;;;;;;45.60;20.30;;;-0.30;99.90;;;;;;4411993;28;660079;-72
2023/01/27 14:27:53;;;;;;;48.83;19.03;;;-0.30;99.90;;;;;;4423791;28;658760;-72
2023/01/27 14:30:43;;;;;;;51.63;21.50;;;-0.30;99.90;;;;;;4413165;28;658771;-72
2023/01/27 14:33:42;;;;;;;51.83;21.00;;;-0.40;99.90;;;;;;4420273;28;658601;-71
2023/01/27 14:36:32;;;;;;;56.97;21.88;;;-0.30;99.90;;;;;;4417518;28;658769;-72
2023/01/27 14:39:23;;;;;;;62.57;21.63;;;-0.40;99.90;;;;;;4434034;28;659704;-72
2023/01/27 14:42:14;;;;;;;48.77;18.43;;;-0.30;99.90;;;;;;4413498;28;658539;-72
2023/01/27 14:45:04;;;;;;;52.40;21.00;;;-0.40;99.90;;;;;;4412872;28;658541;-74